This is the latest recevied weather packets stored in our database for station/object KN6WGU. If no packets are shown the sender has not sent any weather packets the latest 10 day(s).
| Time | Temp. | Humidity | Pressure | Rain* | Wind** | Luminosity | Snow |
|---|---|---|---|---|---|---|---|
| 1788127073 | 25° C | 76% | 1010.5 hPa | 0 mm | - | 75 W/m² | - |
| 1788126768 | 25° C | 76% | 1010.4 hPa | 0 mm | - | 60 W/m² | - |
| 1788126463 | 25° C | 76% | 1010.7 hPa | 0 mm | - | 71 W/m² | - |
| 1788126163 | 25° C | 77% | 1010.7 hPa | 0 mm | - | 79 W/m² | - |
| 1788125862 | 25° C | 77% | 1010.5 hPa | 0 mm | - | 87 W/m² | - |
| 1788125557 | 25° C | 76% | 1010.6 hPa | 0 mm | - | 78 W/m² | - |
| 1788125253 | 25° C | 77% | 1010.7 hPa | 0 mm | - | 94 W/m² | - |
| 1788124949 | 25° C | 77% | 1010.5 hPa | 0 mm | - | 110 W/m² | - |
| 1788124648 | 25.56° C | 75% | 1010.4 hPa | 0 mm | - | 139 W/m² | - |
| 1788124347 | 25.56° C | 76% | 1010.5 hPa | 0 mm | - | 151 W/m² | - |
| 1788124044 | 25.56° C | 77% | 1010.5 hPa | 0 mm | - | 121 W/m² | - |
| 1788123743 | 25° C | 78% | 1010.2 hPa | 0 mm | - | 185 W/m² | - |
| 1788123440 | 25° C | 79% | 1010.1 hPa | 0 mm | - | 164 W/m² | - |
| 1788123135 | 24.44° C | 79% | 1010.3 hPa | 0 mm | - | 198 W/m² | - |
| 1788122830 | 24.44° C | 81% | 1010.9 hPa | 0 mm | - | 153 W/m² | - |
| 1788122529 | 24.44° C | 80% | 1011.6 hPa | 0 mm | - | 137 W/m² | - |
| 1788122225 | 25° C | 81% | 1011.7 hPa | 0 mm | - | 125 W/m² | - |
| 1788121920 | 24.44° C | 81% | 1011.2 hPa | 0 mm | - | 137 W/m² | - |
| 1788121614 | 24.44° C | 81% | 1011.2 hPa | 0 mm | - | 142 W/m² | - |
| 1788121309 | 24.44° C | 81% | 1011.5 hPa | 0 mm | - | 134 W/m² | - |
| 1788121009 | 24.44° C | 81% | 1011.5 hPa | 0 mm | - | 104 W/m² | - |
| 1788120705 | 23.89° C | 82% | 1011.7 hPa | 0 mm | - | 95 W/m² | - |
| 1788120400 | 24.44° C | 82% | 1011.6 hPa | 0 mm | - | 119 W/m² | - |
| 1788120099 | 23.89° C | 82% | 1011.3 hPa | 0 mm | - | 147 W/m² | - |
| 1788119795 | 23.89° C | 83% | 1011.3 hPa | 0 mm | - | 150 W/m² | - |
* Rain latest hour (hover to see other rain measurements)
** Current wind speed in m/s (hover to see current wind gust speed)